Time;durP1;ratioP1;P1;durP2;ratioP2;P2;SDS_P1;SDS_P2;PMS_P1;PMS_P2;Temp;Humidity;BMP_temperature;BMP_pressure;BME280_temperature;BME280_humidity;BME280_pressure;Samples;Min_cycle;Max_cycle;Signal;HPM_P1;HPM_P2
2022/01/28 00:00:28;;;;;;;9.43;1.37;;;;;;;4.54;50.79;101601.78;10062910;29;20227;-84
2022/01/28 00:05:31;;;;;;;7.30;1.40;;;;;;;4.45;50.74;101609.00;10060535;29;20235;-81
2022/01/28 00:10:34;;;;;;;7.20;0.83;;;;;;;3.57;52.59;101623.75;10061930;29;20250;-81
2022/01/28 00:42:12;;;;;;;5.57;0.83;;;;;;;4.24;50.80;101664.09;10059747;29;20259;-83
2022/01/28 00:47:14;;;;;;;10.43;1.23;;;;;;;4.34;50.31;101656.59;10075958;29;20278;-82
2022/01/28 00:52:16;;;;;;;12.23;1.40;;;;;;;5.05;48.82;101648.34;10057247;29;20676;-82
2022/01/28 00:57:18;;;;;;;5.57;1.20;;;;;;;4.69;49.92;101669.03;10059711;29;20202;-81
2022/01/28 01:02:21;;;;;;;7.93;1.20;;;;;;;4.10;52.16;101702.94;10062679;29;20832;-80
2022/01/28 01:07:23;;;;;;;8.77;1.40;;;;;;;4.98;50.63;101714.22;10056777;29;20236;-81
2022/01/28 01:12:28;;;;;;;7.73;1.30;;;;;;;4.68;51.33;101734.56;10056997;29;20612;-83
2022/01/28 01:17:38;;;;;;;8.93;0.90;;;;;;;3.83;51.66;101730.19;10055595;29;20210;-83
2022/01/28 01:22:41;;;;;;;13.77;1.60;;;;;;;4.12;51.01;101723.06;10058938;29;20206;-82
2022/01/28 01:27:48;;;;;;;11.40;1.07;;;;;;;4.85;49.28;101725.97;10057441;29;20223;-82
2022/01/28 01:32:50;;;;;;;6.67;1.10;;;;;;;5.03;48.86;101722.66;10058087;29;20596;-81
2022/01/28 01:37:52;;;;;;;9.83;0.90;;;;;;;5.88;46.42;101722.97;10060359;29;20561;-82
2022/01/28 01:43:07;;;;;;;8.77;1.60;;;;;;;4.08;50.88;101727.56;10059161;29;20262;-82
2022/01/28 01:53:30;;;;;;;9.17;1.70;;;;;;;4.51;50.23;101719.97;10060283;29;20262;-82
2022/01/28 01:58:32;;;;;;;7.17;1.30;;;;;;;4.45;50.27;101712.63;10058041;29;20218;-82
2022/01/28 02:03:35;;;;;;;9.83;1.60;;;;;;;5.11;48.46;101731.34;10059153;29;20199;-82
2022/01/28 02:08:37;;;;;;;8.83;1.27;;;;;;;4.92;49.64;101730.16;10042914;29;20290;-82
2022/01/28 02:13:41;;;;;;;10.77;1.37;;;;;;;4.78;49.84;101737.41;10059908;29;20228;-82
2022/01/28 02:18:43;;;;;;;10.60;1.83;;;;;;;4.52;50.35;101742.06;10060349;29;20207;-82
2022/01/28 02:23:50;;;;;;;6.70;1.70;;;;;;;4.24;50.88;101768.53;10059539;29;20270;-82
2022/01/28 02:28:56;;;;;;;11.37;1.80;;;;;;;3.94;52.26;101787.91;10059351;29;20230;-82
2022/01/28 02:33:59;;;;;;;7.70;1.47;;;;;;;3.62;53.00;101797.13;10074602;29;20234;-82
2022/01/28 02:39:03;;;;;;;10.87;1.67;;;;;;;3.69;51.51;101808.13;10060072;29;20203;-82
2022/01/28 02:49:21;;;;;;;12.80;1.37;;;;;;;4.92;49.84;101819.84;10066613;29;20881;-81
2022/01/28 02:54:23;;;;;;;7.30;0.90;;;;;;;2.23;57.01;101828.41;10065432;29;20260;-83
2022/01/28 02:59:25;;;;;;;10.43;1.40;;;;;;;3.53;54.54;101837.88;10066288;29;20600;-82
2022/01/28 03:09:52;;;;;;;10.17;1.50;;;;;;;3.85;52.76;101828.69;10065899;29;20255;-81
2022/01/28 03:15:01;;;;;;;9.47;1.97;;;;;;;4.67;50.16;101830.94;10067509;29;20683;-82
2022/01/28 03:25:20;;;;;;;9.83;1.47;;;;;;;4.67;50.23;101831.78;10051158;29;20211;-82
2022/01/28 03:30:23;;;;;;;11.93;1.70;;;;;;;4.86;49.83;101840.56;10065157;29;20632;-82
2022/01/28 03:35:25;;;;;;;13.73;2.23;;;;;;;4.37;51.01;101843.63;10079935;29;20270;-81
2022/01/28 03:40:31;;;;;;;10.37;1.90;;;;;;;3.64;52.10;101867.63;10079649;29;20195;-82
2022/01/28 03:45:33;;;;;;;10.93;1.13;;;;;;;3.49;51.72;101866.63;10063659;29;20565;-83
2022/01/28 03:50:35;;;;;;;6.83;1.30;;;;;;;3.58;52.38;101895.81;10066960;29;20640;-81
2022/01/28 03:55:38;;;;;;;9.60;1.40;;;;;;;4.71;49.13;101891.75;10066725;29;20214;-81
2022/01/28 04:00:40;;;;;;;9.27;1.37;;;;;;;3.75;52.11;101926.47;10077740;29;20517;-82
2022/01/28 04:17:25;;;;;;;13.30;2.03;;;;;;;4.71;49.08;101950.59;10064123;29;20210;-81
2022/01/28 04:21:55;;;;;;;18.20;3.73;;;;;;;5.35;47.62;101966.38;10066592;29;20561;-80
2022/01/28 04:26:58;;;;;;;7.83;1.77;;;;;;;4.30;50.39;101977.41;10062400;29;20259;-80
2022/01/28 04:32:01;;;;;;;9.70;1.23;;;;;;;4.50;50.20;101964.72;10061571;29;20294;-81
2022/01/28 04:53:16;;;;;;;13.17;2.60;;;;;;;4.55;49.51;101982.41;10047654;29;20210;-81
2022/01/28 05:29:30;;;;;;;9.43;1.83;;;;;;;4.07;51.37;101994.53;10060875;29;20644;-82
2022/01/28 05:34:32;;;;;;;7.63;1.53;;;;;;;4.95;48.72;101995.88;10060178;29;20540;-82
2022/01/28 05:39:35;;;;;;;13.23;1.90;;;;;;;4.78;49.46;102012.00;10060960;29;20199;-82
2022/01/28 05:44:37;;;;;;;11.03;2.03;;;;;;;4.32;50.27;102007.94;10059512;29;20203;-82
2022/01/28 05:49:39;;;;;;;8.00;2.00;;;;;;;3.86;50.47;102009.44;10060037;29;20226;-83
2022/01/28 05:54:41;;;;;;;6.00;1.13;;;;;;;3.75;51.08;102025.22;10058216;29;20198;-80
2022/01/28 05:59:43;;;;;;;7.50;1.70;;;;;;;4.84;48.75;102033.34;10060509;29;20488;-81
2022/01/28 06:04:45;;;;;;;12.93;1.57;;;;;;;3.96;50.26;102043.97;10059339;29;20267;-83
2022/01/28 06:09:48;;;;;;;6.37;1.47;;;;;;;3.86;50.17;102070.97;10060225;29;20274;-82
2022/01/28 06:14:50;;;;;;;11.03;1.63;;;;;;;4.50;48.94;102071.16;10052392;29;20305;-82
2022/01/28 06:19:52;;;;;;;8.87;1.50;;;;;;;4.56;49.24;102075.69;10075885;29;20270;-82
2022/01/28 06:24:54;;;;;;;8.20;1.40;;;;;;;3.31;51.04;102094.28;10065976;29;20489;-82
2022/01/28 06:29:56;;;;;;;8.30;1.40;;;;;;;4.74;49.06;102100.50;10063126;29;20258;-82
2022/01/28 06:35:07;;;;;;;15.07;1.87;;;;;;;3.41;51.98;102105.59;10066109;29;20242;-82
2022/01/28 06:40:15;;;;;;;13.17;2.27;;;;;;;5.31;47.08;102089.47;10049073;29;20258;-82
2022/01/28 06:45:17;;;;;;;8.97;2.50;;;;;;;5.11;47.66;102103.34;10059255;29;20237;-82
2022/01/28 06:50:19;;;;;;;7.30;1.60;;;;;;;4.84;48.23;102123.03;10058761;29;20322;-82
2022/01/28 06:55:21;;;;;;;10.60;2.73;;;;;;;5.28;47.54;102114.41;10060636;29;20290;-83
2022/01/28 07:00:23;;;;;;;10.00;1.93;;;;;;;3.80;51.51;102134.41;10061571;29;20211;-82
2022/01/28 07:05:25;;;;;;;6.67;2.00;;;;;;;3.59;51.51;102138.88;10058260;29;20238;-82
2022/01/28 07:10:28;;;;;;;16.70;2.23;;;;;;;4.15;50.64;102150.78;10062577;29;20303;-82
2022/01/28 07:15:30;;;;;;;12.37;1.90;;;;;;;4.48;49.52;102146.16;10062715;29;20206;-82
2022/01/28 07:20:33;;;;;;;11.77;1.97;;;;;;;4.45;49.58;102149.47;10063583;29;20211;-82
2022/01/28 07:25:36;;;;;;;12.57;2.03;;;;;;;4.64;48.74;102154.47;10062224;29;20264;-81
2022/01/28 07:30:38;;;;;;;9.37;1.77;;;;;;;4.95;48.03;102166.00;10069698;29;20290;-83
2022/01/28 07:35:40;;;;;;;17.17;2.87;;;;;;;4.48;49.38;102157.34;10050170;29;20207;-82
2022/01/28 07:40:43;;;;;;;16.73;2.87;;;;;;;4.91;48.63;102168.47;10058054;29;20489;-82
2022/01/28 07:45:45;;;;;;;14.03;2.27;;;;;;;4.84;49.29;102169.81;10059222;29;20210;-82
2022/01/28 07:50:47;;;;;;;14.27;2.57;;;;;;;4.74;49.12;102167.75;10059099;29;20636;-82
2022/01/28 07:55:49;;;;;;;10.13;2.10;;;;;;;4.89;48.89;102176.31;10062424;29;20263;-82
2022/01/28 08:00:51;;;;;;;16.00;2.93;;;;;;;5.02;48.98;102181.50;10047552;29;20242;-82
2022/01/28 08:05:54;;;;;;;9.90;2.23;;;;;;;5.21;48.11;102178.28;10054671;29;20601;-82
2022/01/28 08:10:56;;;;;;;13.60;2.60;;;;;;;4.83;49.48;102197.00;10062612;29;20517;-82
2022/01/28 08:15:58;;;;;;;11.53;2.07;;;;;;;4.19;49.68;102207.13;10081415;29;20252;-82
2022/01/28 08:21:00;;;;;;;13.00;2.63;;;;;;;3.92;51.48;102215.41;10075706;29;20660;-82
2022/01/28 08:26:03;;;;;;;12.33;2.50;;;;;;;3.86;52.41;102208.06;10063121;29;20215;-82
2022/01/28 08:31:05;;;;;;;12.83;2.27;;;;;;;3.99;51.20;102216.09;10105523;29;20242;-81
2022/01/28 08:36:08;;;;;;;10.57;2.33;;;;;;;4.54;50.07;102229.16;10061380;29;20258;-82
2022/01/28 08:41:12;;;;;;;13.27;2.20;;;;;;;4.33;50.99;102242.88;10041545;29;20596;-81
2022/01/28 08:46:15;;;;;;;18.53;2.80;;;;;;;4.08;51.73;102245.31;10052019;29;20211;-82
2022/01/28 08:51:17;;;;;;;15.93;2.13;;;;;;;4.48;51.00;102245.03;10058641;29;20226;-82
2022/01/28 08:56:20;;;;;;;16.10;2.97;;;;;;;4.65;50.09;102254.22;10054835;29;20211;-82
2022/01/28 09:01:22;;;;;;;12.90;2.10;;;;;;;3.97;51.72;102263.94;10042131;29;20210;-82
2022/01/28 09:06:25;;;;;;;11.93;1.97;;;;;;;4.25;50.08;102260.09;10076130;29;20227;-81
2022/01/28 09:16:29;;;;;;;18.07;2.77;;;;;;;3.62;51.59;102269.78;10061433;29;20206;-82
2022/01/28 09:21:32;;;;;;;8.07;2.00;;;;;;;3.46;51.41;102279.03;10072169;29;20206;-81
2022/01/28 09:26:35;;;;;;;13.37;2.10;;;;;;;4.34;49.55;102275.38;10061021;29;20202;-82
2022/01/28 09:31:37;;;;;;;12.57;2.13;;;;;;;3.29;51.93;102286.56;10051518;29;20223;-81
2022/01/28 09:36:39;;;;;;;10.00;1.83;;;;;;;4.19;48.84;102283.53;10056279;29;20207;-82
2022/01/28 09:41:43;;;;;;;14.03;2.73;;;;;;;3.67;50.67;102286.66;10059095;29;20265;-82
2022/01/28 09:46:45;;;;;;;9.67;2.00;;;;;;;4.66;47.55;102266.28;10060806;29;20672;-82
2022/01/28 09:51:47;;;;;;;6.63;1.80;;;;;;;4.54;48.04;102273.97;10050698;29;20291;-81
2022/01/28 09:56:50;;;;;;;10.33;2.47;;;;;;;3.62;49.53;102289.34;10061694;29;20262;-81
2022/01/28 10:01:53;;;;;;;13.90;2.20;;;;;;;5.06;47.02;102291.97;10065612;29;20236;-81
2022/01/28 10:06:57;;;;;;;13.37;1.57;;;;;;;4.27;46.93;102291.50;10066133;29;20203;-82
2022/01/28 10:12:13;;;;;;;10.00;1.73;;;;;;;4.28;45.86;102287.59;10049951;29;20238;-82
2022/01/28 10:17:15;;;;;;;13.63;2.30;;;;;;;5.27;44.59;102292.19;10067665;29;20206;-81
2022/01/28 10:22:19;;;;;;;14.13;2.83;;;;;;;5.08;44.73;102295.34;10084269;29;20270;-81
2022/01/28 10:28:05;;;;;;;12.43;2.03;;;;;;;5.28;44.12;102296.69;10077469;29;20267;-82
2022/01/28 10:33:10;;;;;;;6.87;1.60;;;;;;;4.77;43.83;102310.09;10066147;29;20238;-81
2022/01/28 10:38:36;;;;;;;9.87;2.07;;;;;;;4.24;44.33;102289.22;10065159;29;20275;-82
2022/01/28 10:43:47;;;;;;;9.53;1.50;;;;;;;3.45;44.58;102296.91;10059651;29;20202;-81
2022/01/28 10:48:58;;;;;;;6.33;1.43;;;;;;;5.27;42.28;102289.41;10048446;29;20553;-81
2022/01/28 10:54:09;;;;;;;13.67;2.50;;;;;;;5.02;43.75;102293.63;10064462;29;20258;-82
2022/01/28 10:59:12;;;;;;;15.10;1.53;;;;;;;4.04;43.94;102309.34;10046705;29;20218;-80
2022/01/28 11:04:16;;;;;;;14.67;1.80;;;;;;;4.72;42.44;102305.31;10062543;29;20207;-82
2022/01/28 11:09:21;;;;;;;14.20;2.60;;;;;;;5.35;41.36;102308.53;10058526;29;20615;-82
2022/01/28 11:14:25;;;;;;;10.60;1.70;;;;;;;4.86;40.51;102322.56;10066924;29;20262;-82
2022/01/28 11:19:28;;;;;;;8.37;1.67;;;;;;;3.88;42.47;102317.75;10065078;29;20597;-81
2022/01/28 11:24:52;;;;;;;6.17;1.67;;;;;;;5.06;41.63;102317.19;10063044;29;20210;-83
2022/01/28 11:30:28;;;;;;;14.37;2.50;;;;;;;5.74;39.27;102318.47;10067327;29;20644;-83
2022/01/28 11:35:33;;;;;;;13.93;2.87;;;;;;;5.70;40.06;102292.06;10049227;29;20270;-82
2022/01/28 11:40:56;;;;;;;14.17;2.67;;;;;;;4.74;40.68;102299.44;10061364;29;20210;-84
2022/01/28 11:46:08;;;;;;;18.00;2.10;;;;;;;4.96;41.75;102297.47;10073221;29;20211;-82
2022/01/28 11:51:15;;;;;;;13.20;2.30;;;;;;;4.43;41.92;102294.50;10077645;29;20306;-82
2022/01/28 11:56:17;;;;;;;9.93;1.80;;;;;;;5.76;39.92;102288.19;10062134;29;20302;-82
2022/01/28 12:01:24;;;;;;;11.50;1.90;;;;;;;5.35;41.24;102291.72;10060079;29;20271;-82
2022/01/28 12:06:27;;;;;;;13.17;2.00;;;;;;;4.92;40.11;102276.66;10056582;29;20206;-82
2022/01/28 12:11:43;;;;;;;8.03;1.57;;;;;;;6.50;37.66;102260.00;10060953;29;20234;-82
2022/01/28 12:16:57;;;;;;;19.57;2.97;;;;;;;6.04;38.61;102258.91;10055819;29;20211;-82
2022/01/28 12:22:09;;;;;;;17.50;2.93;;;;;;;6.29;39.57;102241.38;10056465;29;20676;-82
2022/01/28 12:27:13;;;;;;;8.37;1.93;;;;;;;5.92;39.52;102237.78;10086420;29;20680;-82
2022/01/28 12:32:23;;;;;;;12.17;2.10;;;;;;;6.67;37.08;102236.47;10064654;29;20261;-82
2022/01/28 12:37:28;;;;;;;14.73;2.53;;;;;;;5.50;37.36;102255.38;10057988;29;20219;-82
2022/01/28 12:42:34;;;;;;;10.63;2.30;;;;;;;5.35;39.53;102258.03;10056716;29;20262;-82
2022/01/28 12:47:36;;;;;;;8.90;1.97;;;;;;;5.53;39.67;102252.06;10059545;29;20613;-82
2022/01/28 12:52:38;;;;;;;12.57;1.83;;;;;;;5.90;37.05;102260.50;10059848;29;20270;-80
2022/01/28 12:57:42;;;;;;;11.57;1.73;;;;;;;5.48;38.44;102263.22;10050181;29;20546;-82
2022/01/28 13:02:49;;;;;;;12.07;2.20;;;;;;;7.08;36.57;102246.72;10049944;29;20203;-82
2022/01/28 13:13:15;;;;;;;10.17;1.67;;;;;;;6.72;37.71;102234.53;10057750;29;20285;-80
2022/01/28 13:18:17;;;;;;;11.93;2.17;;;;;;;6.33;38.71;102227.63;10076339;29;20222;-82
2022/01/28 13:23:19;;;;;;;8.47;1.83;;;;;;;6.60;38.20;102224.63;10058029;29;20207;-82
2022/01/28 13:28:22;;;;;;;10.13;1.63;;;;;;;6.68;37.18;102224.94;10056649;29;20497;-82
2022/01/28 13:33:29;;;;;;;12.17;1.70;;;;;;;5.54;39.52;102227.66;10051506;29;20262;-82
2022/01/28 13:38:35;;;;;;;6.90;1.77;;;;;;;6.37;39.18;102221.16;10051539;29;20206;-82
2022/01/28 13:43:39;;;;;;;9.57;1.70;;;;;;;6.51;37.81;102202.69;10058561;29;20203;-82
2022/01/28 13:48:46;;;;;;;5.43;1.50;;;;;;;6.25;39.01;102200.03;10050110;29;20386;-81
2022/01/28 13:59:13;;;;;;;7.80;1.60;;;;;;;6.28;38.19;102191.91;10063423;29;20214;-82
2022/01/28 14:04:35;;;;;;;14.47;1.70;;;;;;;5.24;39.68;102200.19;10055599;29;20198;-82
2022/01/28 14:09:54;;;;;;;9.83;1.83;;;;;;;7.03;37.12;102196.09;10058447;29;20206;-82
2022/01/28 14:15:09;;;;;;;14.70;1.87;;;;;;;6.85;37.42;102200.25;10057841;29;20203;-80
2022/01/28 14:20:12;;;;;;;10.03;1.83;;;;;;;6.34;39.59;102204.84;10056440;29;20267;-82
2022/01/28 14:25:14;;;;;;;13.87;2.10;;;;;;;6.11;40.99;102197.72;10055429;29;20215;-81
2022/01/28 14:30:34;;;;;;;9.77;1.67;;;;;;;6.35;38.14;102188.84;10053868;29;20261;-83
2022/01/28 14:35:39;;;;;;;13.33;4.97;;;;;;;5.86;39.38;102197.59;10057053;29;20263;-82
2022/01/28 14:40:42;;;;;;;8.70;1.77;;;;;;;5.89;39.97;102197.06;10056814;29;20266;-82
2022/01/28 14:45:44;;;;;;;7.03;1.83;;;;;;;6.60;38.44;102197.34;10063112;29;20214;-81
2022/01/28 14:50:46;;;;;;;7.63;1.40;;;;;;;6.39;39.19;102210.50;10065920;29;20238;-80
2022/01/28 14:55:49;;;;;;;11.33;2.13;;;;;;;6.24;38.55;102199.19;10081213;29;20214;-79
2022/01/28 15:00:51;;;;;;;10.70;1.73;;;;;;;6.78;38.00;102207.28;10067170;29;20203;-82
2022/01/28 15:05:53;;;;;;;8.93;2.00;;;;;;;6.33;39.14;102205.97;10063467;29;20203;-82
2022/01/28 15:10:56;;;;;;;11.93;2.30;;;;;;;7.41;36.68;102202.28;10062167;29;20605;-82
2022/01/28 15:15:59;;;;;;;9.43;2.67;;;;;;;6.89;38.12;102201.41;10060545;29;20223;-82
2022/01/28 15:21:01;;;;;;;13.57;3.20;;;;;;;5.99;40.00;102224.34;10064440;29;20206;-82
2022/01/28 15:26:03;;;;;;;11.50;3.27;;;;;;;6.13;39.17;102219.94;10061458;29;20207;-82
2022/01/28 15:36:26;;;;;;;13.27;3.90;;;;;;;5.73;40.94;102226.13;10063516;29;20218;-82
2022/01/28 15:41:28;;;;;;;8.27;2.87;;;;;;;6.23;39.72;102225.59;10062521;29;20250;-83
2022/01/28 15:46:31;;;;;;;6.73;2.50;;;;;;;6.38;39.16;102206.00;10102753;29;20298;-81
2022/01/28 15:51:33;;;;;;;9.60;3.13;;;;;;;5.80;40.04;102210.75;10075842;29;20639;-82
2022/01/28 15:56:35;;;;;;;5.50;2.63;;;;;;;6.24;39.15;102215.19;10060564;29;20517;-82
2022/01/28 16:01:38;;;;;;;10.23;3.07;;;;;;;6.31;39.77;102222.28;10062813;29;20265;-83
2022/01/28 16:06:40;;;;;;;9.00;2.90;;;;;;;6.86;38.18;102215.16;10063092;29;20274;-82
2022/01/28 16:11:47;;;;;;;11.63;3.90;;;;;;;6.35;39.44;102217.78;10063792;29;20274;-82
2022/01/28 16:22:11;;;;;;;15.77;4.07;;;;;;;6.69;38.53;102211.75;10061944;29;20210;-81
2022/01/28 16:27:13;;;;;;;13.03;3.83;;;;;;;6.37;38.98;102211.88;10062667;29;20206;-81
2022/01/28 16:32:17;;;;;;;8.47;2.97;;;;;;;6.29;39.82;102224.50;10063368;29;20640;-82
2022/01/28 16:37:19;;;;;;;10.37;3.30;;;;;;;5.81;40.82;102212.44;10063572;29;20608;-83
2022/01/28 16:42:29;;;;;;;11.03;2.90;;;;;;;6.70;39.14;102210.63;10060622;29;20557;-80
2022/01/28 16:47:31;;;;;;;9.73;3.17;;;;;;;6.43;40.57;102210.81;10056124;29;20288;-80
2022/01/28 16:52:34;;;;;;;12.57;3.27;;;;;;;6.21;40.44;102196.94;10053461;29;20400;-82
2022/01/28 16:57:36;;;;;;;6.30;1.90;;;;;;;6.20;40.46;102192.44;10042921;29;20242;-80
2022/01/28 17:02:39;;;;;;;8.30;2.73;;;;;;;5.32;42.23;102202.47;10069386;29;20266;-82
2022/01/28 17:07:42;;;;;;;7.57;2.20;;;;;;;5.55;41.79;102202.09;10052436;29;20238;-81
2022/01/28 17:12:44;;;;;;;9.47;2.50;;;;;;;6.03;41.25;102191.78;10049366;29;20633;-81
2022/01/28 17:17:46;;;;;;;8.20;2.20;;;;;;;5.37;43.41;102182.91;10051590;29;20283;-82
2022/01/28 17:22:49;;;;;;;8.63;2.40;;;;;;;5.87;42.95;102181.59;10059832;29;20843;-82
2022/01/28 17:27:53;;;;;;;5.33;2.57;;;;;;;6.08;42.25;102186.19;10050708;29;20596;-81
2022/01/28 17:32:56;;;;;;;8.80;2.50;;;;;;;5.32;44.34;102180.91;10034309;29;20266;-80
2022/01/28 17:38:00;;;;;;;11.20;2.60;;;;;;;6.20;42.60;102163.53;10052763;29;20624;-80
2022/01/28 17:43:04;;;;;;;9.67;2.83;;;;;;;5.14;44.95;102167.31;10065584;29;20234;-83
2022/01/28 17:48:07;;;;;;;6.60;3.17;;;;;;;5.24;44.65;102163.72;10044175;29;20250;-82
2022/01/28 17:53:11;;;;;;;8.20;3.27;;;;;;;5.12;45.46;102163.91;10053162;29;20254;-81
2022/01/28 17:58:13;;;;;;;10.50;3.77;;;;;;;5.64;44.61;102147.19;10043932;29;20298;-81
2022/01/28 18:03:15;;;;;;;8.47;3.40;;;;;;;5.88;44.20;102155.22;10050023;29;20298;-81
2022/01/28 18:08:17;;;;;;;10.43;4.10;;;;;;;4.90;46.30;102149.97;10052755;29;20254;-81
2022/01/28 18:13:20;;;;;;;15.03;4.63;;;;;;;6.01;44.35;102138.72;10052525;29;20266;-82
2022/01/28 18:18:22;;;;;;;12.93;4.30;;;;;;;5.59;44.77;102127.50;10057634;29;20214;-81
2022/01/28 18:23:24;;;;;;;9.43;5.07;;;;;;;5.81;45.11;102133.84;10055008;29;20505;-80
2022/01/28 18:28:27;;;;;;;11.50;5.57;;;;;;;5.76;44.74;102142.25;10065424;29;20369;-81
2022/01/28 18:33:29;;;;;;;13.77;6.00;;;;;;;5.40;45.79;102129.94;10053984;29;20287;-82
2022/01/28 18:38:32;;;;;;;16.87;7.07;;;;;;;5.66;45.73;102125.34;10056387;29;20242;-82
2022/01/28 18:43:37;;;;;;;16.53;8.83;;;;;;;4.98;47.67;102135.47;10058353;29;20234;-81
2022/01/28 18:48:39;;;;;;;20.50;10.57;;;;;;;4.90;48.21;102137.94;10057159;29;20618;-82
2022/01/28 18:53:41;;;;;;;18.20;11.07;;;;;;;4.49;49.64;102151.50;10182044;23;1316886;-88
2022/01/28 18:58:43;;;;;;;26.47;13.97;;;;;;;4.15;51.16;102145.19;10197597;29;20227;-87
2022/01/28 19:03:46;;;;;;;28.03;15.50;;;;;;;4.13;51.32;102136.22;10189567;29;20235;-86
2022/01/28 19:08:48;;;;;;;28.50;16.67;;;;;;;4.78;50.40;102134.44;10183701;29;20263;-89
2022/01/28 19:13:50;;;;;;;27.27;17.47;;;;;;;4.82;49.16;102114.03;10184257;29;20286;-87
2022/01/28 19:18:53;;;;;;;29.57;17.90;;;;;;;4.26;50.97;102110.63;10195455;29;20200;-89
2022/01/28 19:23:55;;;;;;;32.20;18.93;;;;;;;3.91;52.34;102104.59;10187896;29;20215;-89
2022/01/28 19:28:58;;;;;;;32.00;19.87;;;;;;;4.78;50.78;102101.66;10190306;29;20216;-88
2022/01/28 19:34:00;;;;;;;36.83;20.37;;;;;;;4.71;50.65;102112.25;10194875;29;20211;-85
2022/01/28 19:39:05;;;;;;;33.00;20.93;;;;;;;4.48;51.69;102106.94;10191507;29;20228;-87
2022/01/28 19:44:08;;;;;;;33.20;19.77;;;;;;;4.01;51.85;102113.13;10197190;29;20283;-88
2022/01/28 19:49:12;;;;;;;30.33;19.57;;;;;;;4.03;52.15;102106.16;10195163;29;20290;-87
2022/01/28 19:54:15;;;;;;;29.87;19.97;;;;;;;3.80;52.13;102103.63;10195189;29;20299;-88
2022/01/28 19:59:18;;;;;;;30.40;18.50;;;;;;;3.84;52.32;102095.56;10190386;29;20597;-88
2022/01/28 20:04:20;;;;;;;27.60;19.47;;;;;;;4.71;50.42;102078.63;10182238;29;20205;-89
2022/01/28 20:09:23;;;;;;;28.90;18.17;;;;;;;4.45;50.53;102076.66;10192846;29;20232;-87
2022/01/28 20:14:25;;;;;;;29.07;17.93;;;;;;;5.47;48.57;102060.41;10172780;29;20260;-85
2022/01/28 20:19:27;;;;;;;25.83;17.23;;;;;;;4.17;51.49;102073.00;10176962;29;20306;-87
2022/01/28 20:24:30;;;;;;;24.73;16.80;;;;;;;4.04;52.25;102070.63;10169438;29;20263;-86
2022/01/28 20:29:33;;;;;;;25.63;16.77;;;;;;;4.11;51.69;102088.06;10163079;29;20608;-86
2022/01/28 20:34:36;;;;;;;28.43;17.67;;;;;;;4.35;51.46;102074.59;10181448;29;20251;-88
2022/01/28 20:39:38;;;;;;;26.43;16.97;;;;;;;4.47;51.63;102074.44;10163629;29;20240;-87
2022/01/28 20:44:41;;;;;;;25.73;17.80;;;;;;;4.85;50.83;102063.06;10181594;29;20616;-86
2022/01/28 20:49:45;;;;;;;28.50;17.67;;;;;;;4.47;51.56;102054.84;10168868;29;20239;-88
2022/01/28 20:54:47;;;;;;;26.67;16.87;;;;;;;4.45;51.48;102040.25;10174974;29;20326;-87
2022/01/28 20:59:49;;;;;;;26.63;17.93;;;;;;;5.27;49.56;102014.56;10187557;29;20239;-85
2022/01/28 21:04:55;;;;;;;24.93;17.77;;;;;;;5.05;49.90;102021.16;10194130;29;20282;-87
2022/01/28 21:09:57;;;;;;;27.87;17.90;;;;;;;4.91;49.61;102036.75;10171431;29;20287;-85
2022/01/28 21:15:00;;;;;;;34.17;17.37;;;;;;;4.27;52.38;102039.50;10168045;29;20902;-87
2022/01/28 21:20:05;;;;;;;29.80;18.57;;;;;;;5.32;49.29;102025.81;10173497;29;20236;-85
2022/01/28 21:25:08;;;;;;;28.13;17.83;;;;;;;5.32;49.44;102025.81;10182289;29;20540;-87
2022/01/28 21:30:11;;;;;;;28.47;17.83;;;;;;;4.46;50.65;102031.59;10184115;29;20270;-85
2022/01/28 21:35:14;;;;;;;27.87;17.10;;;;;;;5.78;48.11;102010.91;10196025;29;20255;-88
2022/01/28 21:40:16;;;;;;;25.57;16.57;;;;;;;5.04;50.16;102016.66;10185302;29;20224;-87
2022/01/28 21:45:19;;;;;;;26.43;17.10;;;;;;;4.33;52.46;102020.81;10184921;29;20263;-90
2022/01/28 21:50:21;;;;;;;28.67;17.07;;;;;;;4.42;52.40;102013.63;10189549;29;20211;-88
2022/01/28 21:55:30;;;;;;;31.10;18.73;;;;;;;4.30;52.29;101999.78;10205836;29;20231;-86
2022/01/28 22:00:37;;;;;;;28.13;18.37;;;;;;;5.58;49.62;101982.72;10204385;29;20239;-84
2022/01/28 22:05:41;;;;;;;30.90;18.07;;;;;;;4.79;51.93;101976.41;10201355;29;20200;-84
2022/01/28 22:10:43;;;;;;;32.57;19.50;;;;;;;5.13;50.21;101974.97;10197869;29;20548;-85
2022/01/28 22:15:45;;;;;;;31.43;19.30;;;;;;;5.54;49.64;101975.16;10206307;29;20235;-85
2022/01/28 22:20:48;;;;;;;31.43;19.27;;;;;;;4.86;51.12;101963.03;10216052;29;20270;-86
2022/01/28 22:25:50;;;;;;;29.83;18.63;;;;;;;4.27;52.83;101961.13;10228769;29;20222;-85
2022/01/28 22:30:53;;;;;;;31.83;19.60;;;;;;;4.84;51.96;101949.28;10181725;29;20231;-86
2022/01/28 22:35:55;;;;;;;28.23;18.40;;;;;;;5.36;50.63;101937.22;10199633;29;20285;-85
2022/01/28 22:40:57;;;;;;;28.60;18.00;;;;;;;4.99;51.21;101938.16;10178537;29;20283;-88
2022/01/28 22:46:01;;;;;;;23.60;17.17;;;;;;;4.76;51.57;101930.19;10181882;29;20216;-85
2022/01/28 22:51:03;;;;;;;28.10;18.50;;;;;;;5.21;50.32;101934.34;10197679;29;20489;-85
2022/01/28 22:56:06;;;;;;;24.40;15.97;;;;;;;3.84;54.46;101927.69;10198791;29;20259;-85
2022/01/28 23:01:09;;;;;;;22.83;14.63;;;;;;;4.50;51.86;101908.72;10183655;29;20200;-85
2022/01/28 23:06:11;;;;;;;25.27;15.47;;;;;;;4.63;51.98;101891.44;10181934;29;20244;-87
2022/01/28 23:11:13;;;;;;;22.40;14.37;;;;;;;5.15;50.48;101882.19;10199176;29;20207;-84
2022/01/28 23:16:16;;;;;;;19.70;13.83;;;;;;;4.93;50.94;101863.56;10199767;29;20219;-86
2022/01/28 23:21:19;;;;;;;20.27;12.70;;;;;;;4.47;51.99;101847.59;10198883;29;20251;-84
2022/01/28 23:26:22;;;;;;;19.57;13.30;;;;;;;4.72;51.46;101847.78;10182186;29;20212;-85
2022/01/28 23:31:24;;;;;;;20.30;12.90;;;;;;;4.93;50.54;101852.34;10198307;29;20267;-86
2022/01/28 23:36:27;;;;;;;21.13;12.30;;;;;;;4.72;51.55;101850.59;10182116;29;20219;-86
2022/01/28 23:41:29;;;;;;;22.57;13.07;;;;;;;5.15;50.04;101842.94;10206440;29;20517;-85
2022/01/28 23:46:31;;;;;;;19.63;12.83;;;;;;;4.82;50.88;101836.63;10199590;29;20204;-85
2022/01/28 23:51:35;;;;;;;21.33;10.93;;;;;;;4.78;51.48;101843.88;10181091;29;20212;-87
2022/01/28 23:56:38;;;;;;;17.93;10.93;;;;;;;5.15;49.75;101831.72;10196868;29;20255;-84
